createdAt,value
2022-12-06T00:00:34.259Z,97776.97
2022-12-06T00:02:35.635Z,97780.97
2022-12-06T00:04:36.973Z,97790.84
2022-12-06T00:06:38.308Z,97797.94
2022-12-06T00:08:39.584Z,97786.09
2022-12-06T00:10:40.925Z,97777.69
2022-12-06T00:12:42.251Z,97772.03
2022-12-06T00:14:43.556Z,97775.47
2022-12-06T00:16:44.879Z,97770.03
2022-12-06T00:18:46.279Z,97775.59
2022-12-06T00:20:47.550Z,97767.50
2022-12-06T00:22:48.843Z,97773.16
2022-12-06T00:24:50.116Z,97766.47
2022-12-06T00:26:51.417Z,97761.88
2022-12-06T00:28:52.696Z,97762.13
2022-12-06T00:30:53.984Z,97773.41
2022-12-06T00:32:55.273Z,97763.13
2022-12-06T00:34:56.553Z,97756.19
2022-12-06T00:36:57.880Z,97756.59
2022-12-06T00:38:59.156Z,97756.19
2022-12-06T00:41:00.453Z,97756.34
2022-12-06T00:43:01.727Z,97761.75
2022-12-06T00:45:03.027Z,97761.66
2022-12-06T00:47:04.337Z,97765.88
2022-12-06T00:49:05.703Z,97759.16
2022-12-06T00:51:07.024Z,97764.72
2022-12-06T00:53:08.352Z,97767.13
2022-12-06T00:55:09.636Z,97760.25
2022-12-06T00:57:10.919Z,97758.97
2022-12-06T00:59:12.229Z,97752.38
2022-12-06T01:01:13.614Z,97744.94
2022-12-06T01:03:14.993Z,97740.56
2022-12-06T01:05:16.336Z,97739.22
2022-12-06T01:07:17.673Z,97747.31
2022-12-06T01:09:18.952Z,97744.34
2022-12-06T01:11:20.243Z,97735.72
2022-12-06T01:13:21.524Z,97724.31
2022-12-06T01:15:22.805Z,97725.25
2022-12-06T01:17:24.147Z,97720.63
2022-12-06T01:19:25.471Z,97714.31
2022-12-06T01:21:26.757Z,97714.84
2022-12-06T01:23:28.193Z,97715.41
2022-12-06T01:25:35.810Z,97721.94
2022-12-06T01:27:37.788Z,97717.41
2022-12-06T01:29:39.091Z,97712.97
2022-12-06T01:31:40.423Z,97711.97
2022-12-06T01:33:42.644Z,97705.00
2022-12-06T01:35:44.674Z,97701.44
2022-12-06T01:37:46.023Z,97700.50
2022-12-06T01:39:47.331Z,97699.50
2022-12-06T01:41:48.604Z,97697.78
2022-12-06T01:43:49.889Z,97707.16
2022-12-06T01:45:51.718Z,97700.34
2022-12-06T01:47:53.036Z,97708.00
2022-12-06T01:49:54.360Z,97702.91
2022-12-06T01:51:55.653Z,97702.06
2022-12-06T01:53:56.939Z,97699.50
2022-12-06T01:55:58.567Z,97690.19
2022-12-06T01:57:59.872Z,97697.84
2022-12-06T02:00:01.459Z,97690.34
2022-12-06T02:02:03.119Z,97683.78
2022-12-06T02:04:04.515Z,97685.72
2022-12-06T02:06:05.866Z,97685.88
2022-12-06T02:08:09.799Z,97676.50
2022-12-06T02:10:11.215Z,97680.00
2022-12-06T02:12:12.515Z,97679.22
2022-12-06T02:14:14.703Z,97679.38
2022-12-06T02:16:16.053Z,97670.97
2022-12-06T02:18:17.401Z,97669.41
2022-12-06T02:20:18.899Z,97671.28
2022-12-06T02:22:20.277Z,97667.16
2022-12-06T02:24:21.568Z,97660.50
2022-12-06T02:26:22.939Z,97658.91
2022-12-06T02:28:24.288Z,97659.91
2022-12-06T02:30:25.628Z,97654.94
2022-12-06T02:32:26.930Z,97656.75
2022-12-06T02:34:28.231Z,97657.72
2022-12-06T02:36:29.557Z,97653.56
2022-12-06T02:38:30.910Z,97653.59
2022-12-06T02:40:32.208Z,97649.31
2022-12-06T02:42:33.536Z,97651.88
2022-12-06T02:44:34.844Z,97650.09
2022-12-06T02:46:36.198Z,97648.28
2022-12-06T02:48:37.544Z,97646.44
2022-12-06T02:50:38.822Z,97653.88
2022-12-06T02:52:40.112Z,97646.81
2022-12-06T02:54:41.440Z,97640.53
2022-12-06T02:56:42.748Z,97646.19
2022-12-06T02:58:44.769Z,97643.44
2022-12-06T03:00:46.112Z,97644.06
2022-12-06T03:02:47.473Z,97647.38
2022-12-06T03:04:49.863Z,97645.50
2022-12-06T03:06:51.212Z,97640.31
2022-12-06T03:08:52.503Z,97634.16
2022-12-06T03:10:53.796Z,97632.75
2022-12-06T03:12:55.280Z,97641.72
2022-12-06T03:14:56.564Z,97640.00
2022-12-06T03:16:57.895Z,97639.97
2022-12-06T03:18:59.205Z,97638.75
2022-12-06T03:21:00.526Z,97637.13
2022-12-06T03:23:02.357Z,97639.22
2022-12-06T03:25:03.662Z,97644.22
2022-12-06T03:27:04.970Z,97642.44
2022-12-06T03:29:06.283Z,97645.88
2022-12-06T03:31:07.636Z,97640.81
2022-12-06T03:33:08.972Z,97641.75
2022-12-06T03:35:10.257Z,97638.34
2022-12-06T03:37:11.548Z,97637.56
2022-12-06T03:39:12.840Z,97626.66
2022-12-06T03:41:14.146Z,97627.44
2022-12-06T03:43:15.436Z,97622.31
2022-12-06T03:45:16.773Z,97623.28
2022-12-06T03:47:18.195Z,97618.22
2022-12-06T03:49:19.512Z,97615.84
2022-12-06T03:51:20.840Z,97621.09
2022-12-06T03:53:22.168Z,97610.91
2022-12-06T03:55:23.470Z,97613.53
2022-12-06T03:57:24.792Z,97611.97
2022-12-06T03:59:26.073Z,97612.88
2022-12-06T04:01:30.368Z,97623.25
2022-12-06T04:03:31.818Z,97621.69
2022-12-06T04:05:33.132Z,97622.78
2022-12-06T04:07:34.515Z,97620.28
2022-12-06T04:10:02.575Z,97621.16
2022-12-06T04:12:24.174Z,97622.06
2022-12-06T04:14:32.526Z,97616.03
2022-12-06T04:16:52.581Z,97611.75
2022-12-06T04:18:53.860Z,97609.03
2022-12-06T04:21:13.713Z,97619.94
2022-12-06T04:23:14.994Z,97621.44
2022-12-06T04:25:16.273Z,97618.72
2022-12-06T04:27:36.197Z,97612.66
2022-12-06T04:29:56.130Z,97616.69
2022-12-06T04:32:16.084Z,97608.84
2022-12-06T04:34:35.957Z,97611.28
2022-12-06T04:36:55.789Z,97614.56
2022-12-06T04:38:57.121Z,97616.13
2022-12-06T04:40:58.401Z,97603.13
2022-12-06T04:43:18.200Z,97607.19
2022-12-06T04:45:19.523Z,97597.66
2022-12-06T04:47:20.813Z,97597.66
2022-12-06T04:49:22.103Z,97595.13
2022-12-06T04:51:23.414Z,97597.66
2022-12-06T04:53:24.748Z,97585.59
2022-12-06T04:55:26.028Z,97595.03
2022-12-06T04:57:27.303Z,97594.19
2022-12-06T04:59:28.863Z,97591.69
2022-12-06T05:01:30.184Z,97594.34
2022-12-06T05:03:31.609Z,97590.25
2022-12-06T05:05:32.956Z,97592.88
2022-12-06T05:07:34.322Z,97601.50
2022-12-06T05:09:35.680Z,97605.88
2022-12-06T05:11:36.970Z,97607.78
2022-12-06T05:13:38.251Z,97613.06
2022-12-06T05:15:39.552Z,97608.22
2022-12-06T05:17:40.829Z,97609.25
2022-12-06T05:19:42.141Z,97604.28
2022-12-06T05:21:43.430Z,97605.28
2022-12-06T05:23:44.711Z,97601.19
2022-12-06T05:25:45.993Z,97604.72
2022-12-06T05:27:47.346Z,97595.41
2022-12-06T05:29:48.665Z,97602.34
2022-12-06T05:31:50.135Z,97599.91
2022-12-06T05:33:51.469Z,97600.78
2022-12-06T05:35:52.769Z,97596.63
2022-12-06T05:37:54.049Z,97603.44
2022-12-06T05:39:55.358Z,97601.72
2022-12-06T05:41:56.633Z,97604.09
2022-12-06T05:43:58.068Z,97599.72
2022-12-06T05:45:59.422Z,97604.66
2022-12-06T05:48:00.740Z,97603.69
2022-12-06T05:50:02.256Z,97603.56
2022-12-06T05:52:04.364Z,97600.81
2022-12-06T05:54:06.767Z,97603.16
2022-12-06T05:56:08.669Z,97602.13
2022-12-06T05:58:10.048Z,97598.66
2022-12-06T06:00:11.328Z,97601.88
2022-12-06T06:02:12.760Z,97594.94
2022-12-06T06:04:14.136Z,97590.50
2022-12-06T06:06:15.415Z,97588.59
2022-12-06T06:08:16.826Z,97585.03
2022-12-06T06:10:18.152Z,97591.63
2022-12-06T06:12:19.435Z,97594.16
2022-12-06T06:14:20.928Z,97586.53
2022-12-06T06:16:22.353Z,97587.34
2022-12-06T06:18:23.763Z,97595.94
2022-12-06T06:20:25.048Z,97596.91
2022-12-06T06:22:26.372Z,97591.84
2022-12-06T06:24:27.684Z,97593.59
2022-12-06T06:26:29.786Z,97591.03
2022-12-06T06:28:31.115Z,97594.50
2022-12-06T06:30:32.389Z,97591.28
2022-12-06T06:32:33.728Z,97595.66
2022-12-06T06:34:35.008Z,97593.13
2022-12-06T06:36:38.896Z,97592.44
2022-12-06T06:38:42.408Z,97596.78
2022-12-06T06:40:43.765Z,97594.34
2022-12-06T06:42:45.044Z,97594.53
2022-12-06T06:44:46.372Z,97593.84
2022-12-06T06:46:47.687Z,97596.50
2022-12-06T06:48:49.008Z,97599.19
2022-12-06T06:50:55.436Z,97601.03
2022-12-06T06:52:58.533Z,97607.09
2022-12-06T06:54:59.856Z,97603.81
2022-12-06T06:57:02.910Z,97603.97
2022-12-06T06:59:04.268Z,97600.56
2022-12-06T07:01:05.849Z,97609.09
2022-12-06T07:03:07.211Z,97606.59
2022-12-06T07:05:08.525Z,97599.00
2022-12-06T07:07:11.014Z,97599.81
2022-12-06T07:09:12.304Z,97599.72
2022-12-06T07:11:13.580Z,97594.53
2022-12-06T07:13:14.869Z,97599.47
2022-12-06T07:15:16.976Z,97594.16
2022-12-06T07:17:18.544Z,97598.28
2022-12-06T07:19:19.877Z,97600.66
2022-12-06T07:21:23.484Z,97602.13
2022-12-06T07:23:24.813Z,97604.53
2022-12-06T07:25:26.095Z,97603.53
2022-12-06T07:27:27.428Z,97599.03
2022-12-06T07:29:28.708Z,97604.56
2022-12-06T07:31:30.522Z,97594.41
2022-12-06T07:33:31.936Z,97603.19
2022-12-06T07:36:09.854Z,97603.25
2022-12-06T07:37:54.528Z,97596.47
2022-12-06T07:39:55.806Z,97595.66
2022-12-06T07:42:16.020Z,97593.03
2022-12-06T07:44:35.690Z,97598.00
2022-12-06T07:46:37.070Z,97593.81
2022-12-06T07:48:38.416Z,97579.41
2022-12-06T07:50:39.741Z,97583.66
2022-12-06T07:52:41.071Z,97584.59
2022-12-06T07:54:42.399Z,97582.16
2022-12-06T07:56:44.168Z,97586.50
2022-12-06T07:58:46.022Z,97578.06
2022-12-06T08:00:47.361Z,97579.94
2022-12-06T08:02:48.639Z,97586.06
2022-12-06T08:04:50.080Z,97578.44
2022-12-06T08:06:51.573Z,97573.44
2022-12-06T08:08:52.857Z,97580.31
2022-12-06T08:10:54.153Z,97580.44
2022-12-06T08:12:55.445Z,97584.00
2022-12-06T08:14:59.620Z,97584.00
2022-12-06T08:17:01.393Z,97588.06
2022-12-06T08:19:02.708Z,97587.69
2022-12-06T08:21:04.054Z,97587.13
2022-12-06T08:23:05.340Z,97578.63
2022-12-06T08:25:06.639Z,97580.00
2022-12-06T08:27:07.952Z,97572.78
2022-12-06T08:29:09.286Z,97584.94
2022-12-06T08:31:10.682Z,97584.25
2022-12-06T08:33:12.040Z,97582.63
2022-12-06T08:35:13.355Z,97575.88
2022-12-06T08:37:14.653Z,97581.81
2022-12-06T08:39:16.007Z,97576.56
2022-12-06T08:41:36.024Z,97584.00
2022-12-06T08:43:37.311Z,97579.59
2022-12-06T08:45:38.608Z,97577.66
2022-12-06T08:47:39.912Z,97579.19
2022-12-06T08:49:41.211Z,97572.84
2022-12-06T08:51:42.533Z,97591.47
2022-12-06T08:53:43.827Z,97581.63
2022-12-06T08:55:45.114Z,97584.28
2022-12-06T08:57:46.420Z,97580.28
2022-12-06T08:59:47.848Z,97576.03
2022-12-06T09:01:49.246Z,97575.66
2022-12-06T09:03:50.603Z,97571.38
2022-12-06T09:05:51.903Z,97580.22
2022-12-06T09:07:53.386Z,97575.03
2022-12-06T09:09:54.816Z,97577.63
2022-12-06T09:11:56.108Z,97567.31
2022-12-06T09:13:57.419Z,97565.34
2022-12-06T09:15:58.855Z,97418.88
2022-12-06T09:18:00.180Z,97572.97
2022-12-06T09:20:05.832Z,97569.69
2022-12-06T09:22:07.527Z,97567.53
2022-12-06T09:24:08.845Z,97568.66
2022-12-06T09:26:10.149Z,97566.41
2022-12-06T09:28:11.562Z,97566.38
2022-12-06T09:30:12.858Z,97562.53
2022-12-06T09:32:14.157Z,97558.03
2022-12-06T09:34:15.494Z,97562.25
2022-12-06T09:36:16.844Z,97559.78
2022-12-06T09:38:18.137Z,97550.09
2022-12-06T09:40:19.424Z,97551.53
2022-12-06T09:42:20.733Z,97535.88
2022-12-06T09:44:22.144Z,97534.53
2022-12-06T09:46:23.581Z,97538.09
2022-12-06T09:48:24.899Z,97533.25
2022-12-06T09:50:26.192Z,97532.72
2022-12-06T09:52:27.583Z,97529.91
2022-12-06T09:54:28.916Z,97531.66
2022-12-06T09:56:30.202Z,97536.88
2022-12-06T09:58:31.512Z,97528.28
2022-12-06T10:00:32.804Z,97529.03
2022-12-06T10:02:34.139Z,97525.41
2022-12-06T10:04:37.662Z,97523.06
2022-12-06T10:06:39.054Z,97518.72
2022-12-06T10:08:40.525Z,97517.47
2022-12-06T10:10:41.937Z,97521.44
2022-12-06T10:12:43.264Z,97515.31
2022-12-06T10:14:44.549Z,97520.72
2022-12-06T10:16:45.880Z,97511.63
2022-12-06T10:18:47.379Z,97506.78
2022-12-06T10:20:48.741Z,97508.47
2022-12-06T10:22:50.024Z,97505.25
2022-12-06T10:24:51.389Z,97503.75
2022-12-06T10:26:53.749Z,97492.22
2022-12-06T10:28:55.068Z,97502.00
2022-12-06T10:30:56.392Z,97497.41
2022-12-06T10:33:03.765Z,97502.97
2022-12-06T10:35:05.380Z,97496.03
2022-12-06T10:37:06.853Z,97506.56
2022-12-06T10:39:08.260Z,97511.00
2022-12-06T10:41:09.645Z,97504.31
2022-12-06T10:43:10.927Z,97502.63
2022-12-06T10:45:32.212Z,97499.22
2022-12-06T10:47:33.484Z,97505.97
2022-12-06T10:49:34.788Z,97501.56
2022-12-06T10:51:36.084Z,97493.22
2022-12-06T10:53:37.416Z,97502.63
2022-12-06T10:55:38.696Z,97496.09
2022-12-06T10:57:40.015Z,97492.25
2022-12-06T10:59:41.309Z,97483.19
2022-12-06T11:01:42.623Z,97483.09
2022-12-06T11:03:44.006Z,97489.13
2022-12-06T11:05:45.333Z,97489.91
2022-12-06T11:07:46.665Z,97488.16
2022-12-06T11:09:48.046Z,97487.84
2022-12-06T11:11:49.380Z,97485.47
2022-12-06T11:13:50.727Z,97474.16
2022-12-06T11:15:52.036Z,97479.63
2022-12-06T11:17:54.922Z,97475.56
2022-12-06T11:19:59.617Z,97475.84
2022-12-06T11:22:01.049Z,97476.94
2022-12-06T11:24:02.369Z,97473.72
2022-12-06T11:26:03.704Z,97467.09
2022-12-06T11:28:05.041Z,97462.22
2022-12-06T11:30:06.331Z,97469.16
2022-12-06T11:32:07.869Z,97473.63
2022-12-06T11:34:09.207Z,97471.25
2022-12-06T11:36:10.539Z,97467.88
2022-12-06T11:38:11.833Z,97470.41
2022-12-06T11:40:13.125Z,97473.78
2022-12-06T11:42:14.469Z,97474.69
2022-12-06T11:44:15.748Z,97480.75
2022-12-06T11:46:17.105Z,97470.66
2022-12-06T11:48:20.811Z,97466.41
2022-12-06T11:50:22.087Z,97472.34
2022-12-06T11:52:23.404Z,97472.41
2022-12-06T11:54:24.705Z,97353.94
2022-12-06T11:56:26.679Z,97471.50
2022-12-06T11:58:28.088Z,97472.31
2022-12-06T12:00:31.171Z,97457.00
2022-12-06T12:02:35.971Z,97464.59
2022-12-06T12:04:37.333Z,97471.38
2022-12-06T12:06:38.637Z,97460.28
2022-12-06T12:08:39.926Z,97456.81
2022-12-06T12:10:41.253Z,97461.03
2022-12-06T12:13:01.081Z,97463.63
2022-12-06T12:15:02.677Z,97456.72
2022-12-06T12:17:04.255Z,97455.66
2022-12-06T12:19:05.645Z,97455.56
2022-12-06T12:21:06.987Z,97454.94
2022-12-06T12:23:08.282Z,97445.63
2022-12-06T12:25:24.950Z,97446.59
2022-12-06T12:27:28.614Z,97455.38
2022-12-06T12:29:30.115Z,97451.00
2022-12-06T12:31:31.494Z,97444.41
2022-12-06T12:33:33.006Z,97440.19
2022-12-06T12:35:34.336Z,97438.63
2022-12-06T12:37:35.617Z,97436.09
2022-12-06T12:39:36.929Z,97432.84
2022-12-06T12:41:38.254Z,97430.47
2022-12-06T12:43:39.523Z,97429.69
2022-12-06T12:45:43.908Z,97425.59
2022-12-06T12:47:45.213Z,97418.81
2022-12-06T12:49:46.511Z,97431.63
2022-12-06T12:51:48.167Z,97433.44
2022-12-06T12:53:50.327Z,97431.88
2022-12-06T12:55:51.694Z,97427.88
2022-12-06T12:57:53.015Z,97430.66
2022-12-06T12:59:54.302Z,97431.59
2022-12-06T13:01:55.747Z,97425.03
2022-12-06T13:03:57.256Z,97418.31
2022-12-06T13:05:58.598Z,97426.97
2022-12-06T13:07:59.973Z,97426.19
2022-12-06T13:10:01.337Z,97423.75
2022-12-06T13:12:02.796Z,97422.91
2022-12-06T13:14:04.120Z,97426.34
2022-12-06T13:16:10.310Z,97425.50
2022-12-06T13:18:12.133Z,97424.69
2022-12-06T13:20:13.430Z,97410.50
2022-12-06T13:22:14.768Z,97420.38
2022-12-06T13:24:16.096Z,97423.84
2022-12-06T13:26:17.426Z,97420.44
2022-12-06T13:28:18.762Z,97413.63
2022-12-06T13:30:20.147Z,97422.13
2022-12-06T13:32:21.453Z,97412.78
2022-12-06T13:34:22.801Z,97419.59
2022-12-06T13:36:24.385Z,97422.16
2022-12-06T13:38:26.804Z,97416.22
2022-12-06T13:40:28.481Z,97421.31
2022-12-06T13:42:29.768Z,97415.41
2022-12-06T13:44:31.057Z,97415.41
2022-12-06T13:46:32.464Z,97417.06
2022-12-06T13:48:33.859Z,97423.88
2022-12-06T13:50:35.160Z,97420.44
2022-12-06T13:52:36.441Z,97424.75
2022-12-06T13:54:37.775Z,97422.22
2022-12-06T13:56:39.083Z,97418.81
2022-12-06T13:58:40.368Z,97422.22
2022-12-06T14:00:41.724Z,97430.66
2022-12-06T14:02:43.168Z,97432.41
2022-12-06T14:04:44.987Z,97430.66
2022-12-06T14:06:46.365Z,97426.41
2022-12-06T14:08:47.680Z,97422.22
2022-12-06T14:10:48.973Z,97417.13
2022-12-06T14:12:50.621Z,97428.97
2022-12-06T14:14:51.921Z,97425.56
2022-12-06T14:16:53.262Z,97427.25
2022-12-06T14:18:54.612Z,97431.50
2022-12-06T14:20:55.950Z,97429.78
2022-12-06T14:22:57.249Z,97426.34
2022-12-06T14:24:58.584Z,97418.66
2022-12-06T14:26:59.879Z,97419.47
2022-12-06T14:29:01.218Z,97418.53
2022-12-06T14:31:02.552Z,97415.06
2022-12-06T14:33:03.957Z,97408.13
2022-12-06T14:35:05.252Z,97418.25
2022-12-06T14:37:06.546Z,97414.75
2022-12-06T14:39:07.881Z,97411.34
2022-12-06T14:41:28.039Z,97409.56
2022-12-06T14:43:29.361Z,97412.97
2022-12-06T14:45:30.644Z,97419.72
2022-12-06T14:47:31.959Z,97417.22
2022-12-06T14:49:51.893Z,97418.19
2022-12-06T14:51:53.732Z,97410.53
2022-12-06T14:53:55.019Z,97420.84
2022-12-06T14:55:56.344Z,97421.78
2022-12-06T14:57:57.746Z,97419.34
2022-12-06T15:00:18.479Z,97424.50
2022-12-06T15:02:20.334Z,97427.13
2022-12-06T15:04:23.744Z,97426.31
2022-12-06T15:06:25.103Z,97429.78
2022-12-06T15:08:26.573Z,97431.50
2022-12-06T15:10:32.427Z,97424.78
2022-12-06T15:12:52.466Z,97422.31
2022-12-06T15:14:53.763Z,97427.47
2022-12-06T15:16:55.099Z,97426.69
2022-12-06T15:18:56.379Z,97418.22
2022-12-06T15:20:57.690Z,97427.63
2022-12-06T15:22:58.976Z,97430.19
2022-12-06T15:25:00.623Z,97422.59
2022-12-06T15:27:01.924Z,97425.16
2022-12-06T15:29:03.256Z,97425.16
2022-12-06T15:31:04.603Z,97415.03
2022-12-06T15:33:05.892Z,97414.16
2022-12-06T15:35:09.285Z,97408.22
2022-12-06T15:37:37.701Z,97418.41
2022-12-06T15:39:31.892Z,97422.63
2022-12-06T15:41:33.277Z,97412.47
2022-12-06T15:43:34.563Z,97405.69
2022-12-06T15:45:35.861Z,97411.56
2022-12-06T15:47:37.156Z,97412.41
2022-12-06T15:49:39.616Z,97405.53
2022-12-06T15:51:40.947Z,97405.44
2022-12-06T15:53:42.584Z,97407.88
2022-12-06T15:55:44.161Z,97417.13
2022-12-06T15:57:45.444Z,97401.72
2022-12-06T15:59:46.775Z,97411.75
2022-12-06T16:01:48.118Z,97409.13
2022-12-06T16:03:49.522Z,97408.19
2022-12-06T16:05:50.868Z,97407.25
2022-12-06T16:07:55.243Z,97402.00
2022-12-06T16:09:57.261Z,97404.56
2022-12-06T16:11:58.564Z,97404.53
2022-12-06T16:13:59.848Z,97402.84
2022-12-06T16:16:01.365Z,97402.00
2022-12-06T16:18:02.710Z,97403.78
2022-12-06T16:20:22.601Z,97395.34
2022-12-06T16:22:43.904Z,97398.84
2022-12-06T16:24:48.297Z,97408.25
2022-12-06T16:26:53.715Z,97404.94
2022-12-06T16:28:55.009Z,97405.00
2022-12-06T16:30:56.388Z,97402.50
2022-12-06T16:33:04.340Z,97403.44
2022-12-06T16:35:08.768Z,97403.53
2022-12-06T16:37:10.047Z,97396.78
2022-12-06T16:39:11.336Z,97393.47
2022-12-06T16:41:12.649Z,97396.94
2022-12-06T16:43:13.944Z,97395.25
2022-12-06T16:45:15.291Z,97390.19
2022-12-06T16:47:16.619Z,97405.53
2022-12-06T16:51:42.545Z,97395.41
2022-12-06T16:53:43.829Z,97392.94
2022-12-06T16:55:45.171Z,97387.00
2022-12-06T16:57:46.509Z,97392.25
2022-12-06T16:59:47.843Z,97393.22
2022-12-06T17:01:49.146Z,97393.31
2022-12-06T17:03:50.694Z,97392.53
2022-12-06T17:05:52.083Z,97394.34
2022-12-06T17:07:53.495Z,97392.75
2022-12-06T17:09:54.906Z,97392.78
2022-12-06T17:12:07.012Z,97391.06
2022-12-06T17:14:08.633Z,97390.16
2022-12-06T17:16:10.000Z,97390.91
2022-12-06T17:18:11.328Z,97389.06
2022-12-06T17:20:12.612Z,97390.69
2022-12-06T17:22:15.592Z,97388.75
2022-12-06T17:24:16.885Z,97387.63
2022-12-06T17:26:18.184Z,97390.78
2022-12-06T17:28:19.480Z,97380.44
2022-12-06T17:30:22.263Z,97382.06
2022-12-06T17:32:24.167Z,97377.59
2022-12-06T17:34:25.891Z,97384.28
2022-12-06T17:36:27.332Z,97387.53
2022-12-06T17:38:31.748Z,97382.34
2022-12-06T17:40:33.039Z,97384.00
2022-12-06T17:42:53.268Z,97378.88
2022-12-06T17:44:54.575Z,97381.41
2022-12-06T17:46:56.046Z,97383.97
2022-12-06T17:48:57.357Z,97387.38
2022-12-06T17:50:58.680Z,97375.56
2022-12-06T17:52:59.970Z,97383.28
2022-12-06T17:55:01.706Z,97379.13
2022-12-06T17:57:03.253Z,97374.09
2022-12-06T17:59:04.565Z,97373.34
2022-12-06T18:01:05.914Z,97380.22
2022-12-06T18:03:07.355Z,97366.69
2022-12-06T18:05:08.657Z,97369.31
2022-12-06T18:07:10.062Z,97366.81
2022-12-06T18:09:11.349Z,97369.44
2022-12-06T18:11:12.741Z,97368.66
2022-12-06T18:13:14.033Z,97371.28
2022-12-06T18:15:35.277Z,97377.25
2022-12-06T18:17:36.606Z,97380.72
2022-12-06T18:19:38.917Z,97379.09
2022-12-06T18:21:43.028Z,97385.94
2022-12-06T18:24:12.774Z,97388.53
2022-12-06T18:26:05.649Z,97378.34
2022-12-06T18:28:06.952Z,97371.63
2022-12-06T18:30:08.239Z,97381.03
2022-12-06T18:32:09.762Z,97387.00
2022-12-06T18:34:11.137Z,97375.94
2022-12-06T18:36:12.468Z,97385.31
2022-12-06T18:38:13.752Z,97381.09
2022-12-06T18:40:15.130Z,97382.81
2022-12-06T18:42:16.491Z,97381.97
2022-12-06T18:44:17.827Z,97379.41
2022-12-06T18:46:22.105Z,97375.19
2022-12-06T18:48:23.610Z,97376.03
2022-12-06T18:50:24.896Z,97377.72
2022-12-06T18:52:27.909Z,97376.81
2022-12-06T18:54:29.242Z,97374.19
2022-12-06T18:56:30.529Z,97373.25
2022-12-06T18:58:34.477Z,97373.16
2022-12-06T19:00:35.808Z,97370.41
2022-12-06T19:02:37.818Z,97370.28
2022-12-06T19:04:39.197Z,97372.69
2022-12-06T19:06:40.483Z,97372.56
2022-12-06T19:08:43.435Z,97375.84
2022-12-06T19:10:44.736Z,97376.63
2022-12-06T19:12:46.065Z,97366.38
2022-12-06T19:14:50.328Z,97363.81
2022-12-06T19:16:54.561Z,97373.16
2022-12-06T19:18:58.768Z,97383.38
2022-12-06T19:21:00.068Z,97370.63
2022-12-06T19:23:01.405Z,97374.09
2022-12-06T19:25:02.694Z,97376.72
2022-12-06T19:27:06.968Z,97380.22
2022-12-06T19:29:08.612Z,97381.16
2022-12-06T19:31:09.966Z,97377.00
2022-12-06T19:33:11.313Z,97379.66
2022-12-06T19:35:12.601Z,97372.06
2022-12-06T19:37:17.797Z,97383.22
2022-12-06T19:39:19.473Z,97385.00
2022-12-06T19:41:20.766Z,97385.06
2022-12-06T19:43:45.183Z,97392.78
2022-12-06T19:45:46.950Z,97386.94
2022-12-06T19:47:48.298Z,97387.00
2022-12-06T19:49:55.280Z,97387.91
2022-12-06T19:51:56.634Z,97388.78
2022-12-06T19:53:58.336Z,97378.63
2022-12-06T19:56:02.747Z,97377.00
2022-12-06T19:58:04.053Z,97379.59
2022-12-06T20:00:05.340Z,97379.63
2022-12-06T20:02:06.743Z,97382.28
2022-12-06T20:04:08.118Z,97387.50
2022-12-06T20:06:11.827Z,97380.81
2022-12-06T20:08:15.292Z,97385.13
2022-12-06T20:10:16.593Z,97380.16
2022-12-06T20:12:17.981Z,97386.16
2022-12-06T20:14:19.336Z,97387.06
2022-12-06T20:16:20.663Z,97393.00
2022-12-06T20:18:22.032Z,97382.78
2022-12-06T20:20:23.389Z,97388.59
2022-12-06T20:22:24.724Z,97392.72
2022-12-06T20:24:26.020Z,97394.22
2022-12-06T20:26:27.300Z,97403.34
2022-12-06T20:28:31.300Z,97394.56
2022-12-06T20:30:34.021Z,97388.38
2022-12-06T20:32:35.321Z,97377.16
2022-12-06T20:34:36.674Z,97382.06
2022-12-06T20:36:37.967Z,97374.19
2022-12-06T20:38:39.254Z,97381.66
2022-12-06T20:40:40.599Z,97374.63
2022-12-06T20:42:41.931Z,97373.78
2022-12-06T20:44:43.222Z,97372.84
2022-12-06T20:46:44.595Z,97377.06
2022-12-06T20:48:46.032Z,97366.81
2022-12-06T20:50:47.336Z,97366.81
2022-12-06T20:52:48.939Z,97361.75
2022-12-06T20:54:50.268Z,97360.91
2022-12-06T20:56:53.188Z,97366.97
2022-12-06T20:58:57.356Z,97370.47
2022-12-06T21:00:58.743Z,97362.88
2022-12-06T21:03:00.086Z,97369.78
2022-12-06T21:05:01.489Z,97263.44
2022-12-06T21:07:05.628Z,97376.81
2022-12-06T21:09:06.932Z,97368.41
2022-12-06T21:11:22.523Z,97372.75
2022-12-06T21:13:24.939Z,97380.50
2022-12-06T21:15:26.224Z,97374.59
2022-12-06T21:17:27.522Z,97372.13
2022-12-06T21:19:28.815Z,97377.25
2022-12-06T21:21:30.108Z,97379.91
2022-12-06T21:23:31.400Z,97374.84
2022-12-06T21:25:32.693Z,97381.72
2022-12-06T21:27:34.020Z,97371.59
2022-12-06T21:29:36.295Z,97384.38
2022-12-06T21:31:38.284Z,97378.50
2022-12-06T21:33:39.721Z,97376.81
2022-12-06T21:35:41.040Z,97381.09
2022-12-06T21:37:42.657Z,97383.69
2022-12-06T21:39:47.233Z,97383.75
2022-12-06T21:41:48.576Z,97383.75
2022-12-06T21:43:50.026Z,97388.91
2022-12-06T21:45:51.377Z,97381.28
2022-12-06T21:47:52.693Z,97388.16
2022-12-06T21:49:53.984Z,97393.25
2022-12-06T21:52:02.100Z,97387.38
2022-12-06T21:54:10.104Z,97392.47
2022-12-06T21:56:11.436Z,97390.75
2022-12-06T21:58:12.725Z,97391.59
2022-12-06T22:00:15.275Z,97388.16
2022-12-06T22:02:17.241Z,97389.84
2022-12-06T22:04:18.673Z,97388.84
2022-12-06T22:06:19.971Z,97396.34
2022-12-06T22:08:21.356Z,97393.66
2022-12-06T22:10:22.752Z,97394.28
2022-12-06T22:12:24.306Z,97387.28
2022-12-06T22:14:25.644Z,97396.50
2022-12-06T22:16:27.958Z,97387.88
2022-12-06T22:18:29.305Z,97391.84
2022-12-06T22:20:30.590Z,97388.06
2022-12-06T22:22:34.891Z,97380.19
2022-12-06T22:24:36.175Z,97378.78
2022-12-06T22:26:37.662Z,97375.19
2022-12-06T22:28:39.108Z,97381.56
2022-12-06T22:30:40.394Z,97382.84
2022-12-06T22:32:41.680Z,97374.00
2022-12-06T22:34:42.968Z,97378.56
2022-12-06T22:36:44.280Z,97366.97
2022-12-06T22:38:45.567Z,97368.66
2022-12-06T22:40:46.852Z,97367.66
2022-12-06T22:42:48.133Z,97366.97
2022-12-06T22:44:49.477Z,97368.19
2022-12-06T22:46:50.850Z,97368.91
2022-12-06T22:48:52.191Z,97369.31
2022-12-06T22:50:53.480Z,97371.63
2022-12-06T22:52:54.760Z,97374.28
2022-12-06T22:54:56.085Z,97366.00
2022-12-06T22:56:57.389Z,97368.50
2022-12-06T22:58:58.817Z,97363.28
2022-12-06T23:01:00.186Z,97375.22
2022-12-06T23:03:01.513Z,97367.56
2022-12-06T23:05:02.800Z,97367.25
2022-12-06T23:07:04.148Z,97363.28
2022-12-06T23:09:05.489Z,97356.63
2022-12-06T23:11:06.843Z,97360.72
2022-12-06T23:13:08.952Z,97363.09
2022-12-06T23:15:10.236Z,97354.75
2022-12-06T23:17:11.579Z,97364.22
2022-12-06T23:19:12.864Z,97363.91
2022-12-06T23:21:14.188Z,97357.41
2022-12-06T23:23:15.506Z,97362.59
2022-12-06T23:25:16.792Z,97357.59
2022-12-06T23:27:18.142Z,97358.38
2022-12-06T23:29:19.509Z,97360.31
2022-12-06T23:31:20.841Z,97365.44
2022-12-06T23:33:22.966Z,97373.34
2022-12-06T23:35:24.397Z,97363.56
2022-12-06T23:37:25.727Z,97367.59
2022-12-06T23:39:27.029Z,97359.13
2022-12-06T23:41:28.472Z,97362.41
2022-12-06T23:43:29.764Z,97363.47
2022-12-06T23:45:31.740Z,97355.13
2022-12-06T23:47:34.014Z,97359.13
2022-12-06T23:49:35.360Z,97369.22
2022-12-06T23:51:36.663Z,97359.09
2022-12-06T23:53:38.003Z,97354.06
2022-12-06T23:55:39.289Z,97362.06
2022-12-06T23:57:40.610Z,97348.13
2022-12-06T23:59:41.949Z,97348.78
